• Join FlightAware (Why Join?)
  • Login
  • US Flag 
11:23PM EDT


 

Airport Tracker/Info


-or-


 

Live Flight TrackerFlight Track Log ✈ N226CV ✈ 27-Apr-2012 ✈ KSBN - KBED

Flight Track Log - Related Links

Times and Time Zones

All times are in EDT time to prevent confusion due to time zone crossing. See the N226CV flight status page for this flight to view local times or setup timezone preferences in your user account.

Time Position Orientation Groundspeed Altitude Reporting Facility
EDT Latitude Longitude Course Direction KTS MPH feet Rate Location/Type
06:54PM 41.7206 -86.1644 77° East 278 320 6,100  Level Chicago Center
06:55PM 41.7383 -86.0633 76° East 283 326 9,000 2,640 Climbing Chicago Center
06:56PM 41.7583 -85.9564 74° East 276 318 11,400 2,160 Climbing Chicago Center
06:57PM 41.7819 -85.8439 75° East 295 339 13,400 1,920 Climbing Chicago Center
06:58PM 41.8053 -85.7228 76° East 313 360 15,300 1,860 Climbing Chicago Center
06:59PM 41.8283 -85.5961 76° East 324 373 17,200 1,740 Climbing Chicago Center
07:00PM 41.8531 -85.4636 77° East 331 381 18,800 1,740 Climbing Chicago Center
07:01PM 41.8736 -85.3411 75° East 340 391 20,600 1,680 Climbing Cleveland Center
07:02PM 41.8997 -85.2119 79° East 359 413 22,100 1,500 Climbing Cleveland Center
07:03PM 41.9197 -85.0767 82° East 364 419 23,600 1,320 Climbing Cleveland Center
07:04PM 41.9331 -84.9519 82° East 369 425 24,800 1,320 Climbing Cleveland Center
07:05PM 41.9486 -84.8106 81° East 374 430 26,300 1,500 Climbing Cleveland Center
07:06PM 41.9667 -84.6608 81° East 385 443 27,800 1,560 Climbing Cleveland Center
07:07PM 41.9850 -84.4972 81° East 403 464 29,500 1,560 Climbing Cleveland Center
07:08PM 42.0022 -84.3528 80° East 403 464 31,000 1,320 Climbing Cleveland Center
07:09PM 42.0189 -84.2225 81° East 403 464 32,200 1,320 Climbing Cleveland Center
07:10PM 42.0358 -84.0781 81° East 398 458 33,700 1,500 Climbing Cleveland Center
07:11PM 42.0528 -83.9364 81° East 386 444 35,200 1,440 Climbing Cleveland Center
07:12PM 42.0692 -83.7972 81° East 381 438 36,600 1,200 Climbing Cleveland Center
07:13PM 42.0856 -83.6581 81° East 381 438 37,700 1,020 Climbing Cleveland Center
07:14PM 42.1017 -83.5189 81° East 375 432 38,700 600 Climbing Cleveland Center
07:15PM 42.1178 -83.3769 83° East 375 432 39,000 120 Climbing Cleveland Center
07:16PM 42.1317 -83.2236 81° East 399 459 39,000  Level Cleveland Center
07:17PM 42.1500 -83.0619 82° East 422 486 39,000  Level Cleveland Center
07:18PM 42.1681 -82.8944 82° East 441 507 39,000  Level Cleveland Center
07:19PM 42.1861 -82.7214 83° East 459 528 39,000  Level Cleveland Center
07:20PM 42.2017 -82.5508 82° East 468 539 39,000  Level Cleveland Center
07:21PM 42.2189 -82.3747 82° East 463 533 39,000  Level Cleveland Center
07:22PM 42.2386 -82.1789 82° East 468 539 39,000  Level Cleveland Center
07:23PM 42.2575 -82.0000 82° East 473 544 39,000  Level Cleveland Center
07:24PM 42.2742 -81.8347 83° East 479 551 39,000  Level Cleveland Center
07:25PM 42.2906 -81.6497 82° East 484 557 39,000  Level Cleveland Center
07:26PM 42.3089 -81.4703 83° East 484 557 39,000  Level Cleveland Center
07:27PM 42.3247 -81.2881 91° East 484 557 39,000  Level Cleveland Center
07:28PM 42.3214 -81.1028 91° East 484 557 39,000  Level Cleveland Center
07:29PM 42.3181 -80.8978 91° East 489 563 39,000  Level Cleveland Center
07:30PM 42.3164 -80.7150 90° East 489 563 39,000  Level Cleveland Center
07:31PM 42.3164 -80.5297 88° East 489 563 39,000  Level Cleveland Center
07:32PM 42.3203 -80.3500 88° East 479 551 39,000  Level Cleveland Center
07:33PM 42.3239 -80.1703 85° East 474 545 39,000  Level Cleveland Center
07:34PM 42.3358 -79.9961 82° East 474 545 39,000  Level Cleveland Center
07:35PM 42.3536 -79.8217 84° East 474 545 39,000  Level Cleveland Center
07:36PM 42.3669 -79.6503 83° East 469 540 39,000  Level Cleveland Center
07:37PM 42.3839 -79.4728 83° East 464 534 39,000  Level Cleveland Center
07:38PM 42.3989 -79.2983 83° East 464 534 39,000  Level Cleveland Center
07:39PM 42.4156 -79.1236 84° East 464 534 39,000  Level Cleveland Center
07:40PM 42.4300 -78.9489 83° East 464 534 39,000  Level Cleveland Center
07:41PM 42.4458 -78.7683 84° East 470 541 39,000  Level Cleveland Center
07:42PM 42.4597 -78.5878 83° East 475 547 39,000  Level Cleveland Center
07:43PM 42.4753 -78.4100 84° East 481 554 39,000  Level Cleveland Center
07:44PM 42.4883 -78.2264 84° East 481 554 39,000  Level Cleveland Center
07:47PM 42.5244 -77.7094 84° East 481 554 39,000  Level Cleveland Center
07:48PM 42.5386 -77.5311 84° East 481 554 39,000  Level Cleveland Center
07:50PM 42.5669 -77.1631 85° East 493 567 39,000  Level Boston Center
07:51PM 42.5789 -76.9692 84° East 479 551 39,000  Level Boston Center
07:52PM 42.5922 -76.7867 85° East 473 544 39,000  Level Boston Center
07:53PM 42.6031 -76.6125 84° East 478 550 39,000  Level Boston Center
07:54PM 42.6158 -76.4328 85° East 473 544 39,000  Level Boston Center
07:55PM 42.6261 -76.2556 86° East 473 544 39,000  Level Boston Center
07:56PM 42.6339 -76.0839 85° East 467 537 39,000  Level Boston Center
07:57PM 42.6456 -75.9039 86° East 467 537 39,000 -1,020 Level Boston Center
07:59PM 42.6642 -75.5489 85° East 472 543 36,000 -1,620 Descending Boston Center
08:00PM 42.6753 -75.3689 87° East 472 543 34,300 -1,560 Descending Boston Center
08:01PM 42.6819 -75.1856 85° East 477 549 32,900 -1,440 Descending Boston Center
08:02PM 42.6925 -75.0022 86° East 477 549 31,500 -1,560 Descending Boston Center
08:03PM 42.7008 -74.8161 86° East 477 549 29,800 -1,260 Descending Boston Center
08:04PM 42.7106 -74.6328 87° East 483 556 29,000 -420 Descending Boston Center
08:05PM 42.7178 -74.4664 93° East 478 550 29,000  Level Boston Center
08:06PM 42.7108 -74.2656 97° East 478 550 29,000  Level Boston Center
08:07PM 42.6967 -74.0983 96° East 487 560 29,000  Level Boston Center
08:08PM 42.6808 -73.9003 95° East 481 554 29,000 -180 Level Boston Center
08:09PM 42.6683 -73.7164 94° East 486 559 28,700 -1,020 Descending Boston Center
08:10PM 42.6578 -73.5328 96° East 486 559 27,000 -1,680 Descending Boston Center
08:11PM 42.6428 -73.3547 96° East 481 554 25,400 -1,500 Descending Boston Center
08:12PM 42.6294 -73.1822 96° East 474 545 24,000 -720 Descending Boston Center
08:13PM 42.6158 -73.0072 93° East 469 540 24,000  Level Boston Center
08:14PM 42.6081 -72.8350 96° East 463 533 24,000 -1,080 Level Boston Center
08:15PM 42.5961 -72.6714 96° East 451 519 21,900 -2,100 Descending Boston Center
08:16PM 42.5817 -72.4992 96° East 445 512 19,800 -2,040 Descending Boston Center
08:17PM 42.5714 -72.3667 98° East 431 496 17,900 -2,100 Descending Boston Center
08:18PM 42.5544 -72.2033 97° East 408 470 15,600 -2,340 Descending Boston Center
08:19PM 42.5436 -72.0767 96° East 386 444 13,300 -2,760 Descending Boston Center
08:20PM 42.5328 -71.9358 98° East 348 400 10,100 -2,880 Descending Boston Center
08:21PM 42.5217 -71.8344 95° East 313 360 7,600 -2,040 Descending Boston Center
08:22PM 42.5147 -71.7189 87° East 284 327 6,100 -780 Descending Boston Center
08:23PM 42.5183 -71.6317 81° East 264 304 6,100 -600 Level Boston Center
08:24PM 42.5281 -71.5442 79° East 224 258 5,000 -840 Descending Boston Center
08:25PM 42.5381 -71.4736 81° East 211 243 4,500 -780 Descending Boston Center
08:26PM 42.5478 -71.3889 85° East 204 235 3,500 -780 Descending Boston Center
08:27PM 42.5514 -71.3297 98° East 183 211 3,000 -600 Descending Boston Center
08:28PM 42.5444 -71.2594 139° Southeast 178 205 2,300 -600 Descending Boston Center
08:29PM 42.5189 -71.2289 185° South 149 171 1,800 -660 Descending Boston Center
08:30PM 42.4833 -71.2333 216° Southwest 123 142 1,100 -720 Descending Boston TRACON
08:31PM 42.4667 -71.2500 217° Southwest 111 128 500 1,560 Descending Boston TRACON
08:33PM 42.4217 -71.2956 216° Southwest 97 112 6,000 1,740 Climbing Boston Center
08:34PM 42.4011 -71.3156 219° Southwest 97 112 6,000  Level Boston Center
08:35PM 42.3806 -71.3383 219° Southwest 97 112 6,000  Level Boston Center